Time;durP1;ratioP1;P1;durP2;ratioP2;P2;SDS_P1;SDS_P2;PMS_P1;PMS_P2;Temp;Humidity;BMP_temperature;BMP_pressure;BME280_temperature;BME280_humidity;BME280_pressure;Samples;Min_cycle;Max_cycle;Signal;HPM_P1;HPM_P2
2023/09/17 00:01:08;;;;;;;;;11.75;9.00;;;;;22.72;59.97;100574.59;5091237;27;45450;-82
2023/09/17 00:03:34;;;;;;;;;6.75;6.75;;;;;22.66;59.86;100558.22;5080455;27;45161;-80
2023/09/17 00:05:59;;;;;;;;;8.00;8.00;;;;;22.66;59.82;100564.38;5076501;27;45477;-81
2023/09/17 00:08:25;;;;;;;;;9.50;6.75;;;;;22.64;60.29;100570.84;5076320;27;45451;-80
2023/09/17 00:10:50;;;;;;;;;9.25;7.50;;;;;22.59;60.23;100565.03;5068480;28;60039;-82
2023/09/17 00:13:16;;;;;;;;;7.00;6.50;;;;;22.61;60.03;100569.28;5070656;27;45411;-81
2023/09/17 00:15:41;;;;;;;;;10.25;8.25;;;;;22.60;60.91;100569.41;5074733;27;46337;-81
2023/09/17 00:18:06;;;;;;;;;9.75;7.00;;;;;22.57;60.56;100562.47;5077321;27;46929;-80
2023/09/17 00:20:32;;;;;;;;;9.00;7.25;;;;;22.57;60.23;100554.47;5072399;28;45684;-80
2023/09/17 00:22:59;;;;;;;;;6.50;6.50;;;;;22.54;60.33;100558.25;5065196;28;61005;-82
2023/09/17 00:25:25;;;;;;;;;8.50;7.75;;;;;22.52;60.27;100557.53;5070740;28;45340;-82
2023/09/17 00:27:50;;;;;;;;;6.25;6.25;;;;;22.52;60.51;100560.19;5079103;27;45307;-84
2023/09/17 00:30:16;;;;;;;;;8.75;7.25;;;;;22.50;60.41;100556.78;5076777;28;45320;-83
2023/09/17 00:32:41;;;;;;;;;10.00;8.75;;;;;22.50;60.96;100554.09;5076495;28;45973;-83
2023/09/17 00:35:07;;;;;;;;;8.75;7.00;;;;;22.49;60.83;100557.75;5073794;27;46169;-83
2023/09/17 00:37:32;;;;;;;;;10.50;6.75;;;;;22.47;60.23;100556.19;5079253;28;45230;-84
2023/09/17 00:39:58;;;;;;;;;8.75;7.25;;;;;22.46;60.81;100554.50;5075616;28;45510;-81
2023/09/17 00:42:23;;;;;;;;;9.75;8.00;;;;;22.44;61.08;100553.78;5079710;27;69428;-81
2023/09/17 00:44:49;;;;;;;;;8.25;7.75;;;;;22.41;61.14;100549.53;5070649;28;45577;-82
2023/09/17 00:47:14;;;;;;;;;6.00;6.00;;;;;22.41;61.15;100548.69;5073519;28;65630;-81
2023/09/17 00:49:40;;;;;;;;;8.50;7.00;;;;;22.40;61.06;100547.84;5069041;27;66380;-80
2023/09/17 00:52:16;;;;;;;;;8.50;6.75;;;;;22.39;61.20;100553.28;5089673;27;45410;-80
2023/09/17 00:54:42;;;;;;;;;10.50;7.25;;;;;22.39;60.88;100550.63;5083917;27;45287;-83
2023/09/17 00:57:07;;;;;;;;;6.00;6.00;;;;;22.37;61.14;100550.75;5072113;27;65229;-81
2023/09/17 00:59:33;;;;;;;;;5.25;5.25;;;;;22.35;60.95;100556.19;5079064;28;67359;-82
2023/09/17 01:01:58;;;;;;;;;7.00;6.00;;;;;22.35;61.21;100548.19;5067297;27;45456;-82
2023/09/17 01:04:26;;;;;;;;;8.50;7.00;;;;;22.33;61.10;100555.47;5078083;28;46187;-83
2023/09/17 01:06:55;;;;;;;;;7.75;6.50;;;;;22.32;61.13;100553.75;5050090;28;45579;-81
2023/09/17 01:09:21;;;;;;;;;7.00;6.75;;;;;22.32;60.94;100553.75;5077673;28;45448;-82
2023/09/17 01:11:46;;;;;;;;;8.25;8.25;;;;;22.30;61.81;100558.38;5093472;27;45456;-83
2023/09/17 01:14:12;;;;;;;;;11.75;10.00;;;;;22.28;61.76;100554.97;5073814;27;46262;-84
2023/09/17 01:16:41;;;;;;;;;5.75;5.75;;;;;22.24;61.15;100548.19;5073876;27;45521;-82
2023/09/17 01:19:08;;;;;;;;;6.50;5.50;;;;;22.25;61.91;100557.03;5077162;28;45385;-84
2023/09/17 01:21:38;;;;;;;;;7.00;7.00;;;;;22.23;61.71;100556.28;5065592;28;45522;-83
2023/09/17 01:24:28;;;;;;;;;8.50;7.00;;;;;22.20;62.09;100557.38;5074806;28;45972;-83
2023/09/17 01:27:01;;;;;;;;;8.50;7.75;;;;;22.17;62.11;100557.63;5072909;28;45338;-83
2023/09/17 01:29:32;;;;;;;;;7.00;6.00;;;;;22.13;62.12;100553.50;5067286;27;45584;-82
2023/09/17 01:31:57;;;;;;;;;11.00;7.50;;;;;22.11;62.04;100553.59;5067733;27;45390;-82
2023/09/17 01:34:22;;;;;;;;;11.50;10.25;;;;;22.09;61.91;100554.72;5069751;28;45493;-82
2023/09/17 01:36:48;;;;;;;;;7.50;5.00;;;;;22.07;62.55;100541.50;5069424;28;60522;-81
2023/09/17 01:39:22;;;;;;;;;6.25;6.25;;;;;22.08;61.93;100555.66;5069716;28;45633;-82
2023/09/17 01:41:49;;;;;;;;;10.75;8.75;;;;;22.05;62.52;100551.44;5072903;28;45433;-79
2023/09/17 01:44:15;;;;;;;;;7.25;7.00;;;;;22.05;62.18;100553.25;5070400;27;46169;-79
2023/09/17 01:46:40;;;;;;;;;7.00;6.00;;;;;22.03;62.51;100555.16;5089212;28;45237;-78
2023/09/17 01:49:09;;;;;;;;;7.50;5.00;;;;;21.99;62.26;100549.25;5097408;28;44719;-79
2023/09/17 01:51:37;;;;;;;;;7.00;6.00;;;;;21.99;62.83;100551.91;5091779;28;44753;-79
2023/09/17 01:54:03;;;;;;;;;13.50;9.00;;;;;21.95;62.63;100548.63;5075195;27;45458;-80
2023/09/17 01:56:29;;;;;;;;;9.75;8.00;;;;;21.94;62.47;100546.13;5079235;28;45355;-79
2023/09/17 01:58:54;;;;;;;;;7.00;6.00;;;;;21.95;62.83;100550.44;5069887;27;54795;-80
2023/09/17 02:01:19;;;;;;;;;8.25;6.75;;;;;21.92;62.65;100556.88;5066299;28;64863;-79
2023/09/17 02:03:45;;;;;;;;;8.75;8.00;;;;;21.91;62.96;100544.50;5079620;27;54635;-80
2023/09/17 02:06:10;;;;;;;;;8.75;8.50;;;;;21.90;63.42;100550.81;5065273;28;45296;-81
2023/09/17 02:08:36;;;;;;;;;9.00;7.00;;;;;21.87;62.65;100545.72;5069927;27;60643;-80
2023/09/17 02:11:04;;;;;;;;;7.50;7.00;;;;;21.90;62.87;100549.97;5077704;27;45403;-78
2023/09/17 02:13:29;;;;;;;;;8.75;5.75;;;;;21.89;62.77;100549.13;5065092;27;47870;-79
2023/09/17 02:15:55;;;;;;;;;7.00;7.00;;;;;21.87;63.64;100542.19;5071442;28;72489;-79
2023/09/17 02:18:21;;;;;;;;;6.00;6.00;;;;;21.86;62.80;100535.19;5067791;27;57780;-79
2023/09/17 02:20:46;;;;;;;;;6.00;5.50;;;;;21.85;62.79;100536.16;5071893;28;45417;-78
2023/09/17 02:23:12;;;;;;;;;11.75;7.50;;;;;21.85;63.46;100537.00;5067493;27;46885;-79
2023/09/17 02:25:37;;;;;;;;;7.50;7.50;;;;;21.84;63.03;100532.66;5068986;27;67587;-80
2023/09/17 02:28:02;;;;;;;;;8.00;7.00;;;;;21.84;63.51;100532.66;5078126;28;45502;-79
2023/09/17 02:30:28;;;;;;;;;11.25;6.75;;;;;21.82;63.10;100531.06;5068720;27;45315;-80
2023/09/17 02:32:54;;;;;;;;;7.25;7.25;;;;;21.81;63.86;100527.53;5076457;28;45852;-79
2023/09/17 02:35:19;;;;;;;;;8.50;6.00;;;;;21.73;63.16;100516.66;5077100;28;45482;-80
2023/09/17 02:37:44;;;;;;;;;5.00;4.50;;;;;21.80;63.22;100531.19;5072948;28;67467;-81
2023/09/17 02:40:10;;;;;;;;;6.50;6.50;;;;;21.78;63.12;100523.31;5044649;28;57374;-80
2023/09/17 02:42:39;;;;;;;;;9.50;7.00;;;;;21.77;63.22;100524.28;5085711;27;47212;-79
2023/09/17 02:45:05;;;;;;;;;8.00;6.00;;;;;21.76;63.65;100525.25;5076990;28;45863;-79
2023/09/17 02:47:31;;;;;;;;;6.75;6.00;;;;;21.75;63.63;100526.22;5075012;27;46709;-79
2023/09/17 02:49:57;;;;;;;;;11.75;8.25;;;;;21.73;63.52;100527.31;5077926;27;45535;-79
2023/09/17 02:52:22;;;;;;;;;10.00;8.00;;;;;21.74;63.51;100531.66;5071147;27;59454;-79
2023/09/17 02:54:47;;;;;;;;;10.00;8.00;;;;;21.71;63.70;100527.41;5071533;28;62124;-78
2023/09/17 02:57:13;;;;;;;;;7.50;6.75;;;;;21.71;63.75;100522.09;5077440;28;60779;-79
2023/09/17 02:59:38;;;;;;;;;8.00;6.75;;;;;21.70;63.89;100523.06;5075416;27;45305;-80
2023/09/17 03:02:03;;;;;;;;;8.50;7.25;;;;;21.69;63.46;100524.03;5072864;28;60449;-79
2023/09/17 03:04:29;;;;;;;;;9.25;7.00;;;;;21.68;63.74;100522.31;5067240;27;45463;-79
2023/09/17 03:06:54;;;;;;;;;9.25;7.00;;;;;21.68;63.98;100518.81;5072935;28;46896;-79
2023/09/17 03:09:20;;;;;;;;;8.50;6.50;;;;;21.66;63.58;100521.59;5067371;28;45436;-79
2023/09/17 03:11:45;;;;;;;;;7.25;6.25;;;;;21.64;64.40;100520.88;5063501;28;45494;-79
2023/09/17 03:14:10;;;;;;;;;7.75;7.00;;;;;21.61;64.00;100519.28;5073387;28;67668;-79
2023/09/17 03:16:36;;;;;;;;;7.25;6.25;;;;;21.63;64.42;100513.84;5075439;28;45540;-79
2023/09/17 03:19:01;;;;;;;;;6.75;6.25;;;;;21.59;64.27;100518.56;5068191;28;45445;-79
2023/09/17 03:21:26;;;;;;;;;6.50;5.75;;;;;21.58;63.99;100516.88;5069205;27;48666;-79
2023/09/17 03:23:52;;;;;;;;;8.00;6.50;;;;;21.56;64.49;100513.47;5072701;27;71078;-80
2023/09/17 03:26:17;;;;;;;;;6.00;6.00;;;;;21.56;64.17;100513.47;5074750;28;60405;-79
2023/09/17 03:28:42;;;;;;;;;7.00;5.75;;;;;21.57;64.42;100517.00;5077257;27;74825;-79
2023/09/17 03:31:08;;;;;;;;;5.75;5.75;;;;;21.53;64.51;100513.72;5077668;27;70386;-82
2023/09/17 03:33:33;;;;;;;;;7.00;6.00;;;;;21.55;64.20;100514.44;5075886;27;72641;-82
2023/09/17 03:36:00;;;;;;;;;6.25;5.00;;;;;21.53;64.66;100515.50;5064419;27;45599;-81
2023/09/17 03:38:26;;;;;;;;;7.00;7.00;;;;;21.51;64.54;100509.44;5068757;27;45414;-79
2023/09/17 03:40:51;;;;;;;;;7.75;7.75;;;;;21.47;64.40;100503.53;5067568;28;46321;-79
2023/09/17 03:43:16;;;;;;;;;6.25;5.75;;;;;21.51;64.44;100506.78;5072994;27;45323;-79
2023/09/17 03:45:42;;;;;;;;;7.75;7.00;;;;;21.53;64.12;100510.19;5063458;27;52563;-79
2023/09/17 03:48:07;;;;;;;;;6.00;5.25;;;;;21.51;64.44;100504.97;5074679;28;57721;-79
2023/09/17 03:50:35;;;;;;;;;8.00;7.00;;;;;21.51;64.64;100506.78;5064488;28;59685;-79
2023/09/17 03:53:05;;;;;;;;;7.75;7.00;;;;;21.50;64.65;100510.44;5078100;28;45173;-78
2023/09/17 03:55:31;;;;;;;;;8.50;6.00;;;;;21.50;64.82;100507.78;5072145;27;45782;-79
2023/09/17 03:57:57;;;;;;;;;7.50;5.50;;;;;21.47;64.75;100505.34;5062893;28;45481;-79
2023/09/17 04:00:23;;;;;;;;;7.00;7.00;;;;;21.45;64.52;100502.75;5072891;27;46440;-79
2023/09/17 04:02:49;;;;;;;;;7.00;5.50;;;;;21.46;64.39;100508.94;5069988;28;45786;-78
2023/09/17 04:05:15;;;;;;;;;5.50;5.50;;;;;21.43;64.52;100510.84;5101718;27;45339;-77
2023/09/17 04:07:41;;;;;;;;;5.75;5.25;;;;;21.42;64.70;100503.00;5098268;28;44862;-78
2023/09/17 04:10:07;;;;;;;;;8.25;7.00;;;;;21.43;64.83;100507.34;5082278;28;45554;-77
2023/09/17 04:12:36;;;;;;;;;5.50;5.50;;;;;21.43;64.66;100510.03;5103071;27;44919;-78
2023/09/17 04:15:02;;;;;;;;;6.25;5.25;;;;;21.37;64.47;100505.16;5076394;27;45314;-77
2023/09/17 04:17:28;;;;;;;;;7.50;4.50;;;;;21.35;64.57;100499.94;5080638;28;45575;-77
2023/09/17 04:19:55;;;;;;;;;9.75;5.25;;;;;21.36;64.77;100506.13;5078152;27;45499;-79
2023/09/17 04:22:20;;;;;;;;;4.75;4.75;;;;;21.33;64.74;100504.53;5064011;27;45312;-77
2023/09/17 04:24:45;;;;;;;;;4.75;4.75;;;;;21.30;64.72;100504.78;5073387;27;57277;-78
2023/09/17 04:27:11;;;;;;;;;7.50;4.75;;;;;21.30;64.94;100511.91;5073490;28;53095;-79
2023/09/17 04:29:37;;;;;;;;;5.00;5.00;;;;;21.27;65.05;100512.16;5078417;27;47168;-79
2023/09/17 04:32:02;;;;;;;;;6.75;6.00;;;;;21.24;65.28;100519.38;5080155;28;45418;-78
2023/09/17 04:34:27;;;;;;;;;5.50;5.00;;;;;21.21;64.88;100506.34;5074434;27;45364;-77
2023/09/17 04:36:53;;;;;;;;;5.00;4.50;;;;;21.22;65.20;100507.16;5069352;28;68540;-76
2023/09/17 04:39:18;;;;;;;;;6.50;5.00;;;;;21.20;65.50;100506.44;5075981;28;67194;-77
2023/09/17 04:41:44;;;;;;;;;9.25;5.00;;;;;21.17;65.14;100498.69;5075737;27;72118;-77
2023/09/17 04:44:10;;;;;;;;;7.00;5.00;;;;;21.19;65.24;100499.41;5075635;27;45513;-77
2023/09/17 04:46:40;;;;;;;;;5.50;5.25;;;;;21.19;65.18;100499.41;5073312;28;45400;-77
2023/09/17 04:49:06;;;;;;;;;7.75;6.50;;;;;21.20;65.45;100493.13;5071207;28;48254;-76
2023/09/17 04:51:32;;;;;;;;;5.00;5.00;;;;;21.17;65.25;100494.19;5074315;28;47552;-76
2023/09/17 04:53:58;;;;;;;;;6.75;6.00;;;;;21.18;65.48;100493.25;5065773;28;45479;-77
2023/09/17 04:56:23;;;;;;;;;4.75;4.00;;;;;21.20;65.04;100501.97;5076090;28;45261;-76
2023/09/17 04:58:49;;;;;;;;;5.75;5.25;;;;;21.20;65.47;100495.81;5069057;27;47350;-76
2023/09/17 05:01:14;;;;;;;;;4.75;4.25;;;;;21.19;64.91;100502.06;5080143;28;45261;-77
2023/09/17 05:03:41;;;;;;;;;7.25;6.00;;;;;21.19;65.32;100502.06;5066420;27;45228;-77
2023/09/17 05:06:07;;;;;;;;;4.00;4.00;;;;;21.19;65.80;100502.06;5067549;27;45457;-77
2023/09/17 05:08:32;;;;;;;;;5.00;5.00;;;;;21.17;65.81;100504.00;5068436;27;67204;-76
2023/09/17 05:10:57;;;;;;;;;6.00;5.00;;;;;21.15;65.34;100501.47;5070673;27;61101;-77
2023/09/17 05:13:23;;;;;;;;;5.50;5.50;;;;;21.11;65.38;100502.66;5078128;27;45339;-77
2023/09/17 05:15:48;;;;;;;;;6.50;6.00;;;;;21.11;65.34;100512.47;5079888;27;45617;-77
2023/09/17 05:18:13;;;;;;;;;5.25;5.25;;;;;21.10;66.15;100508.94;5072271;27;71411;-77
2023/09/17 05:20:43;;;;;;;;;5.00;5.00;;;;;21.07;66.07;100510.97;5070439;27;69864;-77
2023/09/17 05:23:08;;;;;;;;;3.00;3.00;;;;;21.04;66.10;100512.91;5072971;27;45271;-76
2023/09/17 05:25:34;;;;;;;;;6.75;4.25;;;;;21.03;65.66;100510.34;5069562;28;45452;-76
2023/09/17 05:28:00;;;;;;;;;5.50;4.25;;;;;21.03;65.99;100518.34;5077750;28;46509;-76
2023/09/17 05:30:25;;;;;;;;;6.00;5.00;;;;;21.01;65.58;100509.63;5074139;28;45479;-75
2023/09/17 05:32:51;;;;;;;;;5.75;4.00;;;;;21.01;65.87;100509.63;5077802;27;45511;-76
2023/09/17 05:35:16;;;;;;;;;5.00;5.00;;;;;20.99;66.26;100512.41;5075265;28;45592;-76
2023/09/17 05:37:42;;;;;;;;;6.50;4.75;;;;;20.98;66.03;100510.72;5076466;28;46658;-77
2023/09/17 05:40:08;;;;;;;;;8.00;5.00;;;;;20.95;65.88;100505.63;5076503;28;45858;-77
2023/09/17 05:42:34;;;;;;;;;5.25;4.00;;;;;20.97;66.25;100510.81;5069077;27;45329;-78
2023/09/17 05:44:59;;;;;;;;;7.50;4.00;;;;;20.95;66.03;100508.28;5074545;28;45440;-78
2023/09/17 05:47:24;;;;;;;;;6.00;5.00;;;;;20.93;66.30;100499.56;5067288;27;48789;-77
2023/09/17 05:49:50;;;;;;;;;5.50;4.25;;;;;20.94;66.43;100498.59;5080508;28;64577;-77
2023/09/17 05:52:16;;;;;;;;;8.50;5.00;;;;;20.93;66.05;100496.91;5073438;27;45317;-77
2023/09/17 05:54:41;;;;;;;;;6.75;4.50;;;;;20.92;66.13;100500.50;5074852;27;45664;-76
2023/09/17 05:57:06;;;;;;;;;6.00;6.00;;;;;20.96;66.51;100503.78;5082433;28;61143;-77
2023/09/17 05:59:32;;;;;;;;;4.00;4.00;;;;;20.96;66.29;100509.94;5069312;28;56297;-76
2023/09/17 06:01:58;;;;;;;;;6.75;5.25;;;;;20.96;65.79;100504.63;5075044;27;45331;-75
2023/09/17 06:04:24;;;;;;;;;5.00;5.00;;;;;20.97;66.05;100505.50;5068811;28;45301;-77
2023/09/17 06:06:49;;;;;;;;;4.25;3.00;;;;;20.95;66.36;100499.47;5074770;27;67718;-77
2023/09/17 06:09:14;;;;;;;;;4.25;4.25;;;;;20.98;66.09;100499.19;5078847;28;62043;-78
2023/09/17 06:11:40;;;;;;;;;5.00;4.75;;;;;20.97;66.15;100497.53;5075532;27;45406;-77
2023/09/17 06:14:05;;;;;;;;;8.25;6.00;;;;;20.95;66.40;100499.47;5067976;28;73074;-77
2023/09/17 06:16:30;;;;;;;;;4.00;3.00;;;;;20.94;66.39;100490.59;5073284;27;47047;-78
2023/09/17 06:18:56;;;;;;;;;4.00;4.00;;;;;20.98;66.71;100496.53;5076547;28;61961;-76
2023/09/17 06:21:21;;;;;;;;;4.00;4.00;;;;;20.94;66.64;100495.94;5077436;27;45369;-77
2023/09/17 06:23:47;;;;;;;;;4.00;3.50;;;;;20.95;66.13;100500.28;5062078;28;45596;-76
2023/09/17 06:26:12;;;;;;;;;8.75;5.00;;;;;20.97;66.62;100505.50;5071825;28;46121;-77
2023/09/17 06:28:38;;;;;;;;;5.00;5.00;;;;;20.98;66.39;100516.03;5076115;27;63742;-77
2023/09/17 06:31:03;;;;;;;;;5.25;4.75;;;;;20.99;66.96;100517.72;5072873;28;46702;-77
2023/09/17 06:33:29;;;;;;;;;5.50;4.50;;;;;21.00;66.15;100518.56;5075023;27;45360;-75
2023/09/17 06:35:54;;;;;;;;;8.50;5.00;;;;;21.01;66.58;100515.78;5068214;27;46205;-71
2023/09/17 06:38:19;;;;;;;;;5.75;4.25;;;;;21.01;66.04;100518.44;5074475;28;49334;-78
2023/09/17 06:40:45;;;;;;;;;6.00;3.25;;;;;21.04;66.09;100514.72;5077564;28;45612;-78
2023/09/17 06:43:12;;;;;;;;;5.00;3.75;;;;;21.05;66.27;100514.63;5075109;27;45379;-78
2023/09/17 06:45:38;;;;;;;;;4.00;2.75;;;;;21.07;66.73;100506.53;5069673;28;46355;-77
2023/09/17 06:48:04;;;;;;;;;3.50;3.50;;;;;21.11;66.36;100520.44;5070514;28;45301;-71
2023/09/17 06:50:29;;;;;;;;;8.00;6.00;;;;;21.15;65.92;100517.41;5078095;27;45382;-71
2023/09/17 06:52:54;;;;;;;;;7.00;4.75;;;;;21.16;65.61;100510.28;5068206;27;45427;-68
2023/09/17 06:55:20;;;;;;;;;4.25;4.25;;;;;21.16;65.63;100505.81;5090495;27;51146;-68
2023/09/17 06:57:45;;;;;;;;;5.25;5.25;;;;;21.16;65.06;100502.28;5063149;27;45502;-76
2023/09/17 07:00:11;;;;;;;;;6.25;3.00;;;;;21.15;65.53;100508.59;5069435;27;45567;-70
2023/09/17 07:02:36;;;;;;;;;5.75;4.00;;;;;21.17;65.81;100510.16;5069511;28;45564;-72
2023/09/17 07:05:07;;;;;;;;;6.00;3.75;;;;;21.18;65.67;100508.38;5071327;27;45521;-70
2023/09/17 07:07:32;;;;;;;;;9.75;5.50;;;;;21.21;65.83;100516.09;5073363;28;45515;-74
2023/09/17 07:09:58;;;;;;;;;6.75;5.00;;;;;21.24;65.80;100519.38;5063851;28;65241;-72
2023/09/17 07:12:23;;;;;;;;;5.00;5.00;;;;;21.27;65.79;100515.66;5066077;27;45432;-73
2023/09/17 07:14:48;;;;;;;;;6.50;5.50;;;;;21.31;65.49;100516.28;5071011;28;74271;-73
2023/09/17 07:17:14;;;;;;;;;5.00;4.50;;;;;21.37;65.37;100515.78;5071020;28;73525;-73
2023/09/17 07:19:39;;;;;;;;;4.25;4.25;;;;;21.41;65.64;100519.94;5075082;28;45443;-72
2023/09/17 07:22:10;;;;;;;;;6.00;5.00;;;;;21.45;65.02;100523.22;5074923;28;63874;-71
2023/09/17 07:24:36;;;;;;;;;5.50;4.00;;;;;21.46;65.14;100509.81;5072439;28;45495;-72
2023/09/17 07:27:01;;;;;;;;;4.25;4.00;;;;;21.50;65.01;100513.09;5065571;28;45652;-72
2023/09/17 07:29:28;;;;;;;;;6.75;5.00;;;;;21.49;65.21;100509.56;5073162;28;66607;-72
2023/09/17 07:31:53;;;;;;;;;6.00;6.00;;;;;21.45;64.94;100509.91;5061575;28;45440;-71
2023/09/17 07:34:19;;;;;;;;;5.75;5.00;;;;;21.43;64.78;100507.34;5074531;28;60114;-73
2023/09/17 07:36:44;;;;;;;;;5.25;4.50;;;;;21.42;65.37;100503.00;5070963;28;45221;-68
2023/09/17 07:39:10;;;;;;;;;6.50;5.50;;;;;21.41;64.84;100507.47;5078719;28;56052;-70
2023/09/17 07:41:35;;;;;;;;;5.00;4.75;;;;;21.40;65.02;100519.06;5072205;28;45712;-72
2023/09/17 07:44:00;;;;;;;;;3.75;3.75;;;;;21.41;65.35;100523.44;5076312;28;59769;-72
2023/09/17 07:46:25;;;;;;;;;5.50;4.25;;;;;21.46;64.89;100523.13;5075883;28;50301;-71
2023/09/17 07:48:51;;;;;;;;;5.00;5.00;;;;;21.49;65.07;100525.53;5066371;28;64902;-72
2023/09/17 07:51:16;;;;;;;;;6.00;5.00;;;;;21.55;64.74;100521.59;5081477;28;45496;-73
2023/09/17 07:53:42;;;;;;;;;6.50;6.00;;;;;21.63;64.74;100519.16;5068087;28;58109;-71
2023/09/17 07:56:07;;;;;;;;;7.00;6.00;;;;;21.71;64.51;100519.44;5081517;28;45704;-72
2023/09/17 07:58:32;;;;;;;;;8.75;5.50;;;;;21.80;64.87;100516.06;5076683;28;45299;-69
2023/09/17 08:00:58;;;;;;;;;6.00;5.75;;;;;21.89;64.74;100521.63;5069559;28;45463;-73
2023/09/17 08:03:23;;;;;;;;;66.00;49.25;;;;;21.97;64.21;100520.06;5068160;28;63921;-73
2023/09/17 08:05:49;;;;;;;;;65.75;45.75;;;;;22.07;64.14;100524.66;5076029;27;45323;-75
2023/09/17 08:08:15;;;;;;;;;8.00;8.00;;;;;22.15;64.05;100527.56;5070397;28;47062;-74
2023/09/17 08:10:40;;;;;;;;;6.75;6.75;;;;;22.20;63.47;100530.72;5061522;28;47639;-74
2023/09/17 08:13:06;;;;;;;;;7.25;7.25;;;;;22.22;63.12;100526.09;5077036;28;46228;-73
2023/09/17 08:15:32;;;;;;;;;6.25;4.25;;;;;22.26;63.77;100538.25;5075495;28;45295;-73
2023/09/17 08:17:58;;;;;;;;;7.75;6.25;;;;;22.33;63.33;100533.31;5071163;27;45516;-72
2023/09/17 08:20:24;;;;;;;;;11.25;7.00;;;;;22.45;63.12;100542.13;5074324;28;45616;-72
2023/09/17 08:22:52;;;;;;;;;6.50;6.50;;;;;22.53;62.85;100542.38;5068699;28;46569;-73
2023/09/17 08:25:18;;;;;;;;;13.25;7.00;;;;;22.60;62.79;100543.56;5063825;28;45674;-73
2023/09/17 08:27:45;;;;;;;;;7.00;4.00;;;;;22.64;62.50;100542.34;5063455;28;45637;-73
2023/09/17 08:30:13;;;;;;;;;5.50;5.00;;;;;22.67;62.59;100527.91;5070295;28;45332;-72
2023/09/17 08:32:43;;;;;;;;;3.75;3.75;;;;;22.69;62.46;100525.97;5070461;28;46929;-72
2023/09/17 08:35:09;;;;;;;;;6.50;6.25;;;;;22.68;61.71;100517.13;5076491;28;45358;-72
2023/09/17 08:37:38;;;;;;;;;7.75;5.00;;;;;22.67;62.13;100522.59;5072546;28;45564;-73
2023/09/17 08:40:09;;;;;;;;;9.50;6.50;;;;;22.65;61.82;100519.19;5074175;28;45276;-71
2023/09/17 08:42:37;;;;;;;;;5.25;4.75;;;;;22.65;62.20;100525.38;5079330;28;45480;-72
2023/09/17 08:45:04;;;;;;;;;4.25;4.25;;;;;22.68;62.04;100527.78;5058267;28;45469;-72
2023/09/17 08:47:30;;;;;;;;;5.25;5.25;;;;;22.75;61.74;100533.44;5081199;28;45372;-73
2023/09/17 08:49:55;;;;;;;;;8.75;5.50;;;;;22.82;62.07;100541.81;5072986;28;45571;-73
2023/09/17 08:52:21;;;;;;;;;6.50;6.00;;;;;22.85;61.85;100536.22;5077089;28;62898;-73
2023/09/17 08:54:49;;;;;;;;;8.00;6.00;;;;;22.90;61.79;100534.88;5073444;28;73259;-72
2023/09/17 08:57:15;;;;;;;;;7.50;5.50;;;;;22.96;61.66;100536.19;5080290;28;45398;-74
2023/09/17 08:59:45;;;;;;;;;6.50;6.25;;;;;23.05;61.56;100529.28;5071953;28;64023;-73
2023/09/17 09:02:31;;;;;;;;;4.75;4.75;;;;;23.12;61.34;100536.66;5060355;28;45472;-74
2023/09/17 09:04:57;;;;;;;;;7.00;5.75;;;;;23.20;61.05;100546.69;5076238;28;45281;-73
2023/09/17 09:07:23;;;;;;;;;6.75;4.25;;;;;23.22;60.96;100541.22;5068585;28;45407;-74
2023/09/17 09:09:52;;;;;;;;;6.25;5.25;;;;;23.23;61.04;100535.78;5069680;28;45505;-73
2023/09/17 09:12:18;;;;;;;;;6.00;5.25;;;;;23.28;60.69;100535.38;5072462;28;46355;-73
2023/09/17 09:14:46;;;;;;;;;5.00;4.25;;;;;23.29;60.24;100524.56;5073997;28;45407;-74
2023/09/17 09:17:13;;;;;;;;;5.75;4.25;;;;;23.33;60.23;100522.47;5069344;28;45500;-74
2023/09/17 09:19:38;;;;;;;;;4.25;4.25;;;;;23.42;60.59;100518.19;5065735;27;45530;-74
2023/09/17 09:22:04;;;;;;;;;9.00;6.25;;;;;23.52;60.41;100505.75;5067502;28;69933;-74
2023/09/17 09:24:40;;;;;;;;;5.25;3.75;;;;;23.70;60.33;100508.66;5070175;28;63024;-72
2023/09/17 09:27:06;;;;;;;;;6.75;5.50;;;;;23.80;59.38;100511.41;5075988;28;45367;-74
2023/09/17 09:29:31;;;;;;;;;7.00;5.75;;;;;23.91;59.79;100518.53;5074025;27;45208;-74
2023/09/17 09:31:57;;;;;;;;;6.00;5.75;;;;;23.99;59.41;100511.53;5065924;27;74230;-73
2023/09/17 09:34:24;;;;;;;;;7.00;4.50;;;;;24.08;58.23;100523.22;5076231;27;45373;-73
2023/09/17 09:36:51;;;;;;;;;4.25;4.25;;;;;24.06;58.27;100519.84;5074260;27;45577;-73
2023/09/17 09:39:16;;;;;;;;;7.25;6.00;;;;;24.07;58.64;100514.34;5076906;28;58548;-73
2023/09/17 09:41:42;;;;;;;;;6.50;5.25;;;;;24.11;58.87;100514.09;5080329;28;65396;-74
2023/09/17 09:44:07;;;;;;;;;6.00;6.00;;;;;24.18;58.97;100516.09;5064830;28;47801;-74
2023/09/17 09:46:33;;;;;;;;;6.50;6.25;;;;;24.25;58.84;100508.38;5078729;28;45620;-75
2023/09/17 09:49:02;;;;;;;;;9.00;6.25;;;;;24.34;58.30;100494.19;5071965;28;45361;-75
2023/09/17 09:51:29;;;;;;;;;8.25;7.00;;;;;24.46;57.84;100497.59;5080445;27;46078;-75
2023/09/17 09:53:55;;;;;;;;;5.00;4.25;;;;;24.56;57.92;100498.50;5076634;28;45744;-76
2023/09/17 09:56:21;;;;;;;;;4.75;4.75;;;;;24.66;58.01;100492.31;5080294;28;45426;-75
2023/09/17 09:58:47;;;;;;;;;7.25;5.25;;;;;24.74;57.19;100501.34;5063788;28;45368;-75
2023/09/17 10:01:14;;;;;;;;;10.75;5.25;;;;;24.84;57.73;100495.97;5070167;28;46470;-75
2023/09/17 10:03:40;;;;;;;;;7.00;6.75;;;;;24.95;57.01;100481.66;5078183;28;45593;-75
2023/09/17 10:06:09;;;;;;;;;8.00;8.00;;;;;25.04;56.58;100472.75;5076925;27;61750;-75
2023/09/17 10:08:37;;;;;;;;;15.50;13.75;;;;;25.05;56.61;100452.16;5069101;27;45555;-76
2023/09/17 10:11:05;;;;;;;;;15.00;12.50;;;;;25.09;56.55;100459.78;5078380;28;45398;-75
2023/09/17 10:13:32;;;;;;;;;7.75;5.25;;;;;25.15;56.53;100453.84;5076937;27;45786;-76
2023/09/17 10:15:57;;;;;;;;;7.75;6.75;;;;;25.28;56.41;100455.41;5077506;28;45441;-76
2023/09/17 10:18:25;;;;;;;;;10.50;8.75;;;;;25.37;56.23;100457.22;5074182;28;45449;-75
2023/09/17 10:20:52;;;;;;;;;6.50;6.25;;;;;25.42;56.12;100460.31;5071698;27;45383;-77
2023/09/17 10:23:18;;;;;;;;;10.50;8.25;;;;;25.48;55.74;100462.44;5074599;27;45576;-76
2023/09/17 10:25:45;;;;;;;;;13.00;9.00;;;;;25.55;55.50;100451.94;5071570;28;45525;-78
2023/09/17 10:28:11;;;;;;;;;8.50;7.00;;;;;25.63;55.59;100444.03;5070318;28;45558;-71
2023/09/17 10:30:38;;;;;;;;;13.50;9.00;;;;;25.70;55.48;100439.78;5077258;28;46151;-70
2023/09/17 10:33:05;;;;;;;;;20.50;18.00;;;;;25.74;55.62;100432.28;5071698;28;45501;-75
2023/09/17 10:35:32;;;;;;;;;11.25;9.00;;;;;25.76;55.55;100439.22;5060873;28;45360;-79
2023/09/17 10:38:03;;;;;;;;;9.25;9.25;;;;;25.77;54.92;100429.31;5066788;28;71843;-77
2023/09/17 10:40:29;;;;;;;;;7.50;7.50;;;;;25.77;54.89;100432.00;5070324;28;45334;-76
2023/09/17 10:42:57;;;;;;;;;11.00;8.50;;;;;25.83;54.93;100435.91;5061828;28;45261;-75
2023/09/17 10:45:23;;;;;;;;;8.25;8.25;;;;;25.87;54.70;100434.63;5082406;27;45537;-77
2023/09/17 10:47:50;;;;;;;;;5.00;4.75;;;;;25.88;54.69;100431.78;5059695;28;45310;-73
2023/09/17 10:50:15;;;;;;;;;7.75;6.25;;;;;25.94;54.43;100422.34;5072628;28;45486;-75
2023/09/17 10:52:41;;;;;;;;;9.00;6.50;;;;;25.95;54.83;100416.00;5064895;28;67027;-74
2023/09/17 10:55:08;;;;;;;;;8.25;7.00;;;;;25.99;54.14;100417.38;5062790;28;45204;-72
2023/09/17 10:57:33;;;;;;;;;8.25;7.25;;;;;26.03;54.62;100423.28;5073491;27;45449;-73
2023/09/17 10:59:59;;;;;;;;;6.00;6.00;;;;;26.05;54.32;100424.84;5072627;28;45248;-69
2023/09/17 11:02:25;;;;;;;;;16.50;14.25;;;;;26.04;54.29;100419.63;5075844;28;53627;-73
2023/09/17 11:04:51;;;;;;;;;18.50;18.00;;;;;26.06;53.85;100413.09;5073609;28;45482;-72
2023/09/17 11:07:17;;;;;;;;;8.50;7.50;;;;;26.11;54.51;100423.38;5065494;28;64630;-70
2023/09/17 11:09:45;;;;;;;;;8.75;6.50;;;;;26.19;54.22;100430.69;5070172;28;75623;-72
2023/09/17 11:12:11;;;;;;;;;12.50;11.75;;;;;26.25;54.21;100438.13;5069933;28;45285;-71
2023/09/17 11:14:36;;;;;;;;;11.75;9.75;;;;;26.28;54.29;100433.31;5081851;28;45397;-70
2023/09/17 11:17:04;;;;;;;;;8.75;7.50;;;;;26.31;54.27;100433.03;5060013;28;45421;-70
2023/09/17 11:19:29;;;;;;;;;13.75;9.75;;;;;26.36;54.15;100423.66;5058005;28;46033;-69